sensor_id;sensor_type;location;lat;lon;timestamp;pressure;altitude;pressure_sealevel;temperature;humidity
42859;BME280;28505;56.970;40.998;2023-02-12T00:02:40;98690.69;;;-2.63;100.00
42859;BME280;28505;56.970;40.998;2023-02-12T00:08:03;98673.16;;;-2.69;100.00
42859;BME280;28505;56.970;40.998;2023-02-12T00:13:25;98686.78;;;-2.61;100.00
42859;BME280;28505;56.970;40.998;2023-02-12T00:18:49;98679.75;;;-2.55;100.00
42859;BME280;28505;56.970;40.998;2023-02-12T00:24:12;98689.41;;;-2.61;100.00
42859;BME280;28505;56.970;40.998;2023-02-12T00:29:33;98674.38;;;-2.60;100.00
42859;BME280;28505;56.970;40.998;2023-02-12T00:34:58;98684.59;;;-2.64;100.00
42859;BME280;28505;56.970;40.998;2023-02-12T00:40:20;98687.00;;;-2.62;100.00
42859;BME280;28505;56.970;40.998;2023-02-12T00:45:44;98687.56;;;-2.60;100.00
42859;BME280;28505;56.970;40.998;2023-02-12T00:51:06;98690.22;;;-2.60;100.00
42859;BME280;28505;56.970;40.998;2023-02-12T00:56:28;98684.94;;;-2.60;100.00
42859;BME280;28505;56.970;40.998;2023-02-12T01:01:51;98698.69;;;-2.58;100.00
42859;BME280;28505;56.970;40.998;2023-02-12T01:07:15;98657.56;;;-2.88;100.00
42859;BME280;28505;56.970;40.998;2023-02-12T01:12:37;98690.59;;;-2.68;100.00
42859;BME280;28505;56.970;40.998;2023-02-12T01:17:59;98695.94;;;-2.63;100.00
42859;BME280;28505;56.970;40.998;2023-02-12T01:23:21;98695.84;;;-2.68;100.00
42859;BME280;28505;56.970;40.998;2023-02-12T01:28:47;98678.84;;;-2.77;100.00
42859;BME280;28505;56.970;40.998;2023-02-12T01:34:10;98717.84;;;-2.63;100.00
42859;BME280;28505;56.970;40.998;2023-02-12T01:39:32;98695.78;;;-2.73;100.00
42859;BME280;28505;56.970;40.998;2023-02-12T01:50:35;98706.41;;;-2.68;100.00
42859;BME280;28505;56.970;40.998;2023-02-12T01:56:02;98730.56;;;-2.60;100.00
42859;BME280;28505;56.970;40.998;2023-02-12T02:01:27;98744.66;;;-2.54;100.00
42859;BME280;28505;56.970;40.998;2023-02-12T02:06:58;98751.06;;;-2.50;100.00
42859;BME280;28505;56.970;40.998;2023-02-12T02:12:23;98743.78;;;-2.60;100.00
42859;BME280;28505;56.970;40.998;2023-02-12T02:18:11;98761.53;;;-2.55;100.00
42859;BME280;28505;56.970;40.998;2023-02-12T02:35:45;98778.72;;;-2.52;100.00
42859;BME280;28505;56.970;40.998;2023-02-12T02:41:16;98757.69;;;-2.64;100.00
42859;BME280;28505;56.970;40.998;2023-02-12T02:46:46;98773.69;;;-2.54;100.00
42859;BME280;28505;56.970;40.998;2023-02-12T02:52:13;98770.16;;;-2.60;100.00
42859;BME280;28505;56.970;40.998;2023-02-12T02:57:51;98792.72;;;-2.52;100.00
42859;BME280;28505;56.970;40.998;2023-02-12T03:03:22;98804.56;;;-2.54;100.00
42859;BME280;28505;56.970;40.998;2023-02-12T03:09:15;98802.75;;;-2.66;100.00
42859;BME280;28505;56.970;40.998;2023-02-12T03:14:46;98804.50;;;-2.71;100.00
42859;BME280;28505;56.970;40.998;2023-02-12T03:20:22;98827.28;;;-2.65;100.00
42859;BME280;28505;56.970;40.998;2023-02-12T03:26:09;98827.56;;;-2.78;100.00
42859;BME280;28505;56.970;40.998;2023-02-12T03:37:33;98842.50;;;-2.84;100.00
42859;BME280;28505;56.970;40.998;2023-02-12T03:54:14;98838.97;;;-2.90;100.00
42859;BME280;28505;56.970;40.998;2023-02-12T03:59:38;98881.22;;;-2.73;100.00
42859;BME280;28505;56.970;40.998;2023-02-12T04:05:06;98867.50;;;-2.87;100.00
42859;BME280;28505;56.970;40.998;2023-02-12T04:11:00;98894.31;;;-2.78;100.00
42859;BME280;28505;56.970;40.998;2023-02-12T04:16:28;98917.81;;;-2.76;100.00
42859;BME280;28505;56.970;40.998;2023-02-12T04:22:08;98929.50;;;-2.72;100.00
42859;BME280;28505;56.970;40.998;2023-02-12T04:27:45;98911.75;;;-2.89;100.00
42859;BME280;28505;56.970;40.998;2023-02-12T04:33:17;98945.25;;;-2.77;100.00
42859;BME280;28505;56.970;40.998;2023-02-12T04:38:54;98935.94;;;-2.92;100.00
42859;BME280;28505;56.970;40.998;2023-02-12T04:44:24;98952.81;;;-2.93;100.00
42859;BME280;28505;56.970;40.998;2023-02-12T04:49:47;98964.28;;;-2.99;100.00
42859;BME280;28505;56.970;40.998;2023-02-12T04:55:09;98966.31;;;-3.01;100.00
42859;BME280;28505;56.970;40.998;2023-02-12T05:00:32;98999.59;;;-2.88;100.00
42859;BME280;28505;56.970;40.998;2023-02-12T05:05:54;99009.56;;;-2.90;100.00
42859;BME280;28505;56.970;40.998;2023-02-12T05:11:17;99005.06;;;-3.01;100.00
42859;BME280;28505;56.970;40.998;2023-02-12T05:16:39;99024.13;;;-2.99;100.00
42859;BME280;28505;56.970;40.998;2023-02-12T05:22:01;99003.22;;;-3.24;100.00
42859;BME280;28505;56.970;40.998;2023-02-12T05:27:23;99036.13;;;-3.15;100.00
42859;BME280;28505;56.970;40.998;2023-02-12T05:32:45;99040.69;;;-3.22;100.00
42859;BME280;28505;56.970;40.998;2023-02-12T05:38:07;99055.63;;;-3.16;100.00
42859;BME280;28505;56.970;40.998;2023-02-12T05:43:30;99088.09;;;-3.04;100.00
42859;BME280;28505;56.970;40.998;2023-02-12T05:48:52;99085.91;;;-3.07;100.00
42859;BME280;28505;56.970;40.998;2023-02-12T05:54:14;99095.28;;;-3.11;100.00
42859;BME280;28505;56.970;40.998;2023-02-12T05:59:36;99091.00;;;-3.24;100.00
42859;BME280;28505;56.970;40.998;2023-02-12T06:04:58;99112.47;;;-3.20;100.00
42859;BME280;28505;56.970;40.998;2023-02-12T06:10:22;99099.44;;;-3.34;100.00
42859;BME280;28505;56.970;40.998;2023-02-12T06:15:48;99143.75;;;-3.12;100.00
42859;BME280;28505;56.970;40.998;2023-02-12T06:21:15;99126.28;;;-3.25;100.00
42859;BME280;28505;56.970;40.998;2023-02-12T06:26:37;99138.09;;;-3.27;100.00
42859;BME280;28505;56.970;40.998;2023-02-12T06:32:02;99161.34;;;-3.24;100.00
42859;BME280;28505;56.970;40.998;2023-02-12T06:37:25;99181.72;;;-3.13;100.00
42859;BME280;28505;56.970;40.998;2023-02-12T06:42:47;99189.91;;;-3.21;100.00
42859;BME280;28505;56.970;40.998;2023-02-12T06:48:10;99185.31;;;-3.26;100.00
42859;BME280;28505;56.970;40.998;2023-02-12T06:53:33;99196.94;;;-3.34;100.00
42859;BME280;28505;56.970;40.998;2023-02-12T06:58:58;99234.00;;;-3.10;100.00
42859;BME280;28505;56.970;40.998;2023-02-12T07:04:26;99209.69;;;-3.12;100.00
42859;BME280;28505;56.970;40.998;2023-02-12T07:09:48;99234.56;;;-3.08;100.00
42859;BME280;28505;56.970;40.998;2023-02-12T07:15:11;99256.69;;;-2.91;100.00
42859;BME280;28505;56.970;40.998;2023-02-12T07:20:32;99254.34;;;-2.99;100.00
42859;BME280;28505;56.970;40.998;2023-02-12T07:26:03;99280.41;;;-2.91;100.00
42859;BME280;28505;56.970;40.998;2023-02-12T07:31:26;99290.59;;;-2.94;100.00
42859;BME280;28505;56.970;40.998;2023-02-12T07:36:48;99303.63;;;-2.99;100.00
42859;BME280;28505;56.970;40.998;2023-02-12T07:42:10;99303.00;;;-3.13;100.00
42859;BME280;28505;56.970;40.998;2023-02-12T07:47:41;99323.78;;;-2.87;100.00
42859;BME280;28505;56.970;40.998;2023-02-12T07:53:03;99339.00;;;-2.70;100.00
42859;BME280;28505;56.970;40.998;2023-02-12T07:58:24;99345.16;;;-2.76;100.00
42859;BME280;28505;56.970;40.998;2023-02-12T08:03:48;99356.84;;;-2.84;100.00
42859;BME280;28505;56.970;40.998;2023-02-12T08:09:13;99367.22;;;-2.89;100.00
42859;BME280;28505;56.970;40.998;2023-02-12T08:14:36;99369.72;;;-2.76;100.00
42859;BME280;28505;56.970;40.998;2023-02-12T08:19:58;99372.28;;;-2.69;100.00
42859;BME280;28505;56.970;40.998;2023-02-12T08:25:22;99387.75;;;-2.73;100.00
42859;BME280;28505;56.970;40.998;2023-02-12T08:30:45;99392.34;;;-2.68;100.00
42859;BME280;28505;56.970;40.998;2023-02-12T08:36:13;99387.22;;;-2.63;100.00
42859;BME280;28505;56.970;40.998;2023-02-12T08:41:36;99419.25;;;-2.60;100.00
42859;BME280;28505;56.970;40.998;2023-02-12T08:46:58;99427.09;;;-2.53;100.00
42859;BME280;28505;56.970;40.998;2023-02-12T08:52:20;99449.25;;;-2.54;100.00
42859;BME280;28505;56.970;40.998;2023-02-12T08:57:45;99469.97;;;-2.39;100.00
42859;BME280;28505;56.970;40.998;2023-02-12T09:03:07;99460.38;;;-2.52;100.00
42859;BME280;28505;56.970;40.998;2023-02-12T09:08:29;99471.97;;;-2.53;100.00
42859;BME280;28505;56.970;40.998;2023-02-12T09:13:52;99497.09;;;-2.50;100.00
42859;BME280;28505;56.970;40.998;2023-02-12T09:19:14;99483.44;;;-2.66;100.00
42859;BME280;28505;56.970;40.998;2023-02-12T09:24:36;99529.88;;;-2.40;100.00
42859;BME280;28505;56.970;40.998;2023-02-12T09:29:59;99527.25;;;-2.40;100.00
42859;BME280;28505;56.970;40.998;2023-02-12T09:35:22;99516.38;;;-2.50;100.00
42859;BME280;28505;56.970;40.998;2023-02-12T09:40:57;99541.59;;;-2.36;100.00
42859;BME280;28505;56.970;40.998;2023-02-12T09:51:54;99563.34;;;-2.33;100.00
42859;BME280;28505;56.970;40.998;2023-02-12T09:57:26;99573.16;;;-2.41;100.00
42859;BME280;28505;56.970;40.998;2023-02-12T10:02:53;99582.75;;;-2.46;100.00
42859;BME280;28505;56.970;40.998;2023-02-12T10:14:24;99604.59;;;-2.39;100.00
42859;BME280;28505;56.970;40.998;2023-02-12T10:31:04;99626.22;;;-2.49;100.00
42859;BME280;28505;56.970;40.998;2023-02-12T10:47:25;99675.03;;;-2.58;100.00
42859;BME280;28505;56.970;40.998;2023-02-12T10:52:53;99677.31;;;-2.68;100.00
42859;BME280;28505;56.970;40.998;2023-02-12T10:58:21;99667.25;;;-2.85;100.00
42859;BME280;28505;56.970;40.998;2023-02-12T11:03:45;99664.69;;;-2.98;100.00
42859;BME280;28505;56.970;40.998;2023-02-12T11:09:27;99680.56;;;-3.04;100.00
42859;BME280;28505;56.970;40.998;2023-02-12T11:14:54;99706.56;;;-3.08;100.00
42859;BME280;28505;56.970;40.998;2023-02-12T11:20:25;99738.56;;;-2.98;100.00
42859;BME280;28505;56.970;40.998;2023-02-12T11:26:01;99713.06;;;-3.17;100.00
42859;BME280;28505;56.970;40.998;2023-02-12T11:31:33;99744.31;;;-3.21;100.00
42859;BME280;28505;56.970;40.998;2023-02-12T11:36:56;99769.84;;;-3.08;100.00
42859;BME280;28505;56.970;40.998;2023-02-12T11:42:21;99756.31;;;-3.25;100.00
42859;BME280;28505;56.970;40.998;2023-02-12T11:47:44;99781.47;;;-3.22;100.00
42859;BME280;28505;56.970;40.998;2023-02-12T11:53:08;99780.84;;;-3.31;100.00
42859;BME280;28505;56.970;40.998;2023-02-12T11:58:33;99788.78;;;-3.38;100.00
42859;BME280;28505;56.970;40.998;2023-02-12T12:04:12;99816.34;;;-3.34;100.00
42859;BME280;28505;56.970;40.998;2023-02-12T12:09:44;99835.22;;;-3.23;100.00
42859;BME280;28505;56.970;40.998;2023-02-12T12:15:21;99846.97;;;-3.26;100.00
42859;BME280;28505;56.970;40.998;2023-02-12T12:21:22;99828.34;;;-3.64;100.00
42859;BME280;28505;56.970;40.998;2023-02-12T12:26:52;99852.47;;;-3.67;100.00
42859;BME280;28505;56.970;40.998;2023-02-12T12:32:22;99832.41;;;-3.95;100.00
42859;BME280;28505;56.970;40.998;2023-02-12T12:55:15;99850.19;;;-4.10;100.00
42859;BME280;28505;56.970;40.998;2023-02-12T13:01:01;99886.66;;;-4.07;100.00
42859;BME280;28505;56.970;40.998;2023-02-12T13:06:48;99942.19;;;-4.02;100.00
42859;BME280;28505;56.970;40.998;2023-02-12T13:12:45;99946.19;;;-4.13;100.00
42859;BME280;28505;56.970;40.998;2023-02-12T13:18:19;99948.97;;;-4.28;100.00
42859;BME280;28505;56.970;40.998;2023-02-12T13:29:15;99942.13;;;-4.63;100.00
42859;BME280;28505;56.970;40.998;2023-02-12T13:34:39;99978.56;;;-4.60;100.00
42859;BME280;28505;56.970;40.998;2023-02-12T13:40:07;99977.69;;;-4.74;100.00
42859;BME280;28505;56.970;40.998;2023-02-12T13:45:50;100000.72;;;-4.76;100.00
42859;BME280;28505;56.970;40.998;2023-02-12T13:51:35;100016.69;;;-4.78;100.00
42859;BME280;28505;56.970;40.998;2023-02-12T13:57:06;100000.47;;;-5.09;100.00
42859;BME280;28505;56.970;40.998;2023-02-12T14:08:04;100013.19;;;-5.34;100.00
42859;BME280;28505;56.970;40.998;2023-02-12T14:13:27;100003.31;;;-5.54;100.00
42859;BME280;28505;56.970;40.998;2023-02-12T14:24:58;100080.56;;;-5.27;100.00
42859;BME280;28505;56.970;40.998;2023-02-12T14:30:31;100075.09;;;-5.47;100.00
42859;BME280;28505;56.970;40.998;2023-02-12T14:36:38;100065.69;;;-5.77;100.00
42859;BME280;28505;56.970;40.998;2023-02-12T14:52:58;100134.13;;;-5.79;100.00
42859;BME280;28505;56.970;40.998;2023-02-12T14:58:22;100138.03;;;-5.90;100.00
42859;BME280;28505;56.970;40.998;2023-02-12T15:03:50;100136.16;;;-6.10;100.00
42859;BME280;28505;56.970;40.998;2023-02-12T15:09:19;100149.63;;;-6.14;100.00
42859;BME280;28505;56.970;40.998;2023-02-12T15:14:56;100152.78;;;-6.18;100.00
42859;BME280;28505;56.970;40.998;2023-02-12T15:20:28;100167.25;;;-6.22;100.00
42859;BME280;28505;56.970;40.998;2023-02-12T15:25:52;100166.16;;;-6.28;100.00
42859;BME280;28505;56.970;40.998;2023-02-12T15:31:22;100178.31;;;-6.27;100.00
42859;BME280;28505;56.970;40.998;2023-02-12T15:36:46;100188.00;;;-6.27;100.00
42859;BME280;28505;56.970;40.998;2023-02-12T15:42:31;100192.78;;;-6.31;100.00
42859;BME280;28505;56.970;40.998;2023-02-12T15:53:31;100196.13;;;-6.22;100.00
42859;BME280;28505;56.970;40.998;2023-02-12T15:58:56;100204.00;;;-6.22;100.00
42859;BME280;28505;56.970;40.998;2023-02-12T16:04:20;100205.66;;;-6.21;100.00
42859;BME280;28505;56.970;40.998;2023-02-12T16:09:42;100161.50;;;-6.55;100.00
42859;BME280;28505;56.970;40.998;2023-02-12T16:15:05;100163.81;;;-6.61;100.00
42859;BME280;28505;56.970;40.998;2023-02-12T16:20:29;100164.56;;;-6.67;100.00
42859;BME280;28505;56.970;40.998;2023-02-12T16:25:53;100227.94;;;-6.40;100.00
42859;BME280;28505;56.970;40.998;2023-02-12T16:31:16;100205.06;;;-6.54;100.00
42859;BME280;28505;56.970;40.998;2023-02-12T16:36:45;100231.19;;;-6.38;100.00
42859;BME280;28505;56.970;40.998;2023-02-12T16:42:14;100234.03;;;-6.48;100.00
42859;BME280;28505;56.970;40.998;2023-02-12T16:47:36;100241.84;;;-6.40;100.00
42859;BME280;28505;56.970;40.998;2023-02-12T16:52:59;100194.09;;;-6.73;100.00
42859;BME280;28505;56.970;40.998;2023-02-12T16:58:22;100232.19;;;-6.39;100.00
42859;BME280;28505;56.970;40.998;2023-02-12T17:03:46;100211.16;;;-6.54;100.00
42859;BME280;28505;56.970;40.998;2023-02-12T17:09:10;100213.91;;;-6.47;100.00
42859;BME280;28505;56.970;40.998;2023-02-12T17:14:33;100211.53;;;-6.42;100.00
42859;BME280;28505;56.970;40.998;2023-02-12T17:19:56;100212.81;;;-6.38;100.00
42859;BME280;28505;56.970;40.998;2023-02-12T17:25:18;100214.47;;;-6.37;100.00
42859;BME280;28505;56.970;40.998;2023-02-12T17:30:41;100246.44;;;-6.19;100.00
42859;BME280;28505;56.970;40.998;2023-02-12T17:36:04;100244.28;;;-6.15;100.00
42859;BME280;28505;56.970;40.998;2023-02-12T17:41:28;100234.50;;;-6.21;100.00
42859;BME280;28505;56.970;40.998;2023-02-12T17:46:52;100236.94;;;-6.20;100.00
42859;BME280;28505;56.970;40.998;2023-02-12T17:52:14;100252.78;;;-6.13;100.00
42859;BME280;28505;56.970;40.998;2023-02-12T17:57:37;100234.66;;;-6.23;100.00
42859;BME280;28505;56.970;40.998;2023-02-12T18:02:59;100247.75;;;-6.15;100.00
42859;BME280;28505;56.970;40.998;2023-02-12T18:08:21;100219.72;;;-6.37;100.00
42859;BME280;28505;56.970;40.998;2023-02-12T18:13:44;100257.59;;;-6.17;100.00
42859;BME280;28505;56.970;40.998;2023-02-12T18:19:06;100241.84;;;-6.40;100.00
42859;BME280;28505;56.970;40.998;2023-02-12T18:24:28;100237.78;;;-6.42;100.00
42859;BME280;28505;56.970;40.998;2023-02-12T18:29:52;100204.84;;;-6.68;100.00
42859;BME280;28505;56.970;40.998;2023-02-12T18:35:14;100248.63;;;-6.45;100.00
42859;BME280;28505;56.970;40.998;2023-02-12T18:40:39;100246.81;;;-6.45;100.00
42859;BME280;28505;56.970;40.998;2023-02-12T18:46:10;100246.69;;;-6.51;100.00
42859;BME280;28505;56.970;40.998;2023-02-12T18:51:32;100218.50;;;-6.72;100.00
42859;BME280;28505;56.970;40.998;2023-02-12T18:56:58;100239.28;;;-6.71;100.00
42859;BME280;28505;56.970;40.998;2023-02-12T19:02:20;100258.06;;;-6.59;100.00
42859;BME280;28505;56.970;40.998;2023-02-12T19:07:42;100238.47;;;-6.71;100.00
42859;BME280;28505;56.970;40.998;2023-02-12T19:13:04;100236.97;;;-6.66;100.00
42859;BME280;28505;56.970;40.998;2023-02-12T19:18:33;100220.66;;;-6.76;100.00
42859;BME280;28505;56.970;40.998;2023-02-12T19:23:57;100247.72;;;-6.61;100.00
42859;BME280;28505;56.970;40.998;2023-02-12T19:29:20;100245.47;;;-6.64;100.00
42859;BME280;28505;56.970;40.998;2023-02-12T19:34:43;100246.56;;;-6.58;100.00
42859;BME280;28505;56.970;40.998;2023-02-12T19:40:07;100240.59;;;-6.67;100.00
42859;BME280;28505;56.970;40.998;2023-02-12T19:45:31;100232.63;;;-6.81;100.00
42859;BME280;28505;56.970;40.998;2023-02-12T19:50:54;100237.75;;;-6.88;100.00
42859;BME280;28505;56.970;40.998;2023-02-12T19:56:16;100260.91;;;-6.69;100.00
42859;BME280;28505;56.970;40.998;2023-02-12T20:01:38;100243.59;;;-6.78;100.00
42859;BME280;28505;56.970;40.998;2023-02-12T20:07:01;100249.75;;;-6.71;100.00
42859;BME280;28505;56.970;40.998;2023-02-12T20:12:23;100230.66;;;-6.79;100.00
42859;BME280;28505;56.970;40.998;2023-02-12T20:17:45;100250.22;;;-6.67;100.00
42859;BME280;28505;56.970;40.998;2023-02-12T20:23:07;100251.41;;;-6.70;100.00
42859;BME280;28505;56.970;40.998;2023-02-12T20:28:29;100257.00;;;-6.73;100.00
42859;BME280;28505;56.970;40.998;2023-02-12T20:33:56;100255.78;;;-6.62;100.00
42859;BME280;28505;56.970;40.998;2023-02-12T20:39:19;100244.75;;;-6.57;100.00
42859;BME280;28505;56.970;40.998;2023-02-12T20:44:42;100225.34;;;-6.71;100.00
42859;BME280;28505;56.970;40.998;2023-02-12T20:50:04;100203.91;;;-6.98;100.00
42859;BME280;28505;56.970;40.998;2023-02-12T20:55:27;100226.41;;;-6.80;100.00
42859;BME280;28505;56.970;40.998;2023-02-12T21:00:49;100249.75;;;-6.71;100.00
42859;BME280;28505;56.970;40.998;2023-02-12T21:06:11;100233.91;;;-6.77;100.00
42859;BME280;28505;56.970;40.998;2023-02-12T21:11:33;100233.41;;;-6.73;100.00
42859;BME280;28505;56.970;40.998;2023-02-12T21:16:55;100236.03;;;-6.73;100.00
42859;BME280;28505;56.970;40.998;2023-02-12T21:22:17;100227.81;;;-6.70;100.00
42859;BME280;28505;56.970;40.998;2023-02-12T21:27:39;100223.75;;;-6.72;100.00
42859;BME280;28505;56.970;40.998;2023-02-12T21:33:02;100211.63;;;-6.73;100.00
42859;BME280;28505;56.970;40.998;2023-02-12T21:38:25;100214.06;;;-6.72;100.00
42859;BME280;28505;56.970;40.998;2023-02-12T21:43:52;100208.66;;;-6.70;100.00
42859;BME280;28505;56.970;40.998;2023-02-12T21:49:16;100215.88;;;-6.72;100.00
42859;BME280;28505;56.970;40.998;2023-02-12T21:54:45;100209.00;;;-6.73;100.00
42859;BME280;28505;56.970;40.998;2023-02-12T22:00:07;100169.44;;;-6.87;100.00
42859;BME280;28505;56.970;40.998;2023-02-12T22:05:35;100185.06;;;-6.70;100.00
42859;BME280;28505;56.970;40.998;2023-02-12T22:11:01;100163.25;;;-6.71;100.00
42859;BME280;28505;56.970;40.998;2023-02-12T22:16:26;100153.47;;;-6.77;100.00
42859;BME280;28505;56.970;40.998;2023-02-12T22:21:49;100154.56;;;-6.71;100.00
42859;BME280;28505;56.970;40.998;2023-02-12T22:27:14;100127.75;;;-6.96;100.00
42859;BME280;28505;56.970;40.998;2023-02-12T22:32:36;100161.44;;;-6.93;100.00
42859;BME280;28505;56.970;40.998;2023-02-12T22:37:59;100153.53;;;-7.08;100.00
42859;BME280;28505;56.970;40.998;2023-02-12T22:43:21;100127.34;;;-7.39;100.00
42859;BME280;28505;56.970;40.998;2023-02-12T22:48:46;100112.38;;;-7.85;100.00
42859;BME280;28505;56.970;40.998;2023-02-12T22:54:12;100141.66;;;-7.89;100.00
42859;BME280;28505;56.970;40.998;2023-02-12T22:59:35;100126.09;;;-8.38;100.00
42859;BME280;28505;56.970;40.998;2023-02-12T23:04:57;100133.66;;;-8.68;100.00
42859;BME280;28505;56.970;40.998;2023-02-12T23:10:19;100118.13;;;-8.94;100.00
42859;BME280;28505;56.970;40.998;2023-02-12T23:15:42;100127.59;;;-9.09;100.00
42859;BME280;28505;56.970;40.998;2023-02-12T23:21:04;100116.44;;;-9.44;100.00
42859;BME280;28505;56.970;40.998;2023-02-12T23:26:28;100113.19;;;-9.88;100.00
42859;BME280;28505;56.970;40.998;2023-02-12T23:31:50;100110.50;;;-10.13;100.00
42859;BME280;28505;56.970;40.998;2023-02-12T23:37:13;100131.53;;;-10.06;100.00
42859;BME280;28505;56.970;40.998;2023-02-12T23:42:35;100108.88;;;-10.06;100.00
42859;BME280;28505;56.970;40.998;2023-02-12T23:47:57;100097.84;;;-9.92;100.00
42859;BME280;28505;56.970;40.998;2023-02-12T23:53:19;100097.91;;;-9.75;100.00
42859;BME280;28505;56.970;40.998;2023-02-12T23:58:43;100090.13;;;-9.67;100.00
